Aeroporto :
LOGIN :

Iscrizione | Disclaimer

   EN    FR    IT 

 










Sommario :    VFR   VFR Marginale   IFR   IFR Intensivo   IFR Molto Intensivo
Visibilità : 
Base nubi : 
>= 8 km
>= 3000ft
5 / 8 km
1000 / 3000 ft
1500m / 5 km
500 / 1000 ft
800 / 1500m
200 / 500 ft
< 800m
< 200 ft
Simboli :   Temporali  Nebbia  Neve Forte  Precipitazioni Forti  Vento > 20 kt
SIGMETs :   Varie  Temporali  Ghiacco  Turbolenza  Onda orograficha  Ceneri Vulcaniche






- Altitudine del aeroporto : 1682 ft
- Codice IATA : VIT


LEVT - Vitoria Gasteiz

ULTIMO METAR :
  • 171630Z 02003G16KT 330V070 9999 FEW015 SCT022 BKN038 09/05 Q1030

METARs OBSOLETI :
  • 171600Z 33007KT 300V360 9999 FEW015 SCT024 BKN038 09/05 Q1030
  • 171530Z 03008KT 350V070 9999 FEW014 BKN024 08/06 Q1030
  • 171500Z 34007KT 290V020 9999 SCT025 BKN038 09/05 Q1029
  • 171430Z 34008KT 9999 FEW023 BKN034 09/06 Q1029
  • 171400Z 34006KT 300V030 9999 FEW021 SCT024 BKN032 09/06 Q1029

TAF TAF LEVT
Valido dal 17 a 12 ore il 18 a 12 ore UTC


171100Z 1712/1812 36009KT 9999 SCT010 BKN020 TX13/1714Z TNM00/1806Z
PROB40
TEMPO 1712/1715 3000 RA BKN010 BKN014
PROB40
TEMPO 1800/1807 3000 BR
PROB40
TEMPO 1800/1807 0350 FG FZFG VV001



MetMap, La meteo Aeronautica in un colpo d'occhio ! - Copyright ORBIFLY Dicembre 2007 - Disclaimer

ORBIFLY MET'MAP TEAM :

Programmazione e sviluppo : Alexandra Zaïnal
Concezione : Baudouin d'Aumeries
Aiuto per la programmazione : Marc-Olivier Méhu
Supporto tecnico e logistico : Manuel Goepfert
Aiuto per la traduzione : Arnaldo La Scala

Contatto : metmap@orbifly.com




FONTI E CREDITI :

   NOAA